This is the latest recevied weather packets stored in our database for station/object WX8ASH-13. If no packets are shown the sender has not sent any weather packets the latest 10 day(s).
| Time | Temp. | Humidity | Pressure | Rain* | Wind** | Luminosity | Snow |
|---|---|---|---|---|---|---|---|
| 1777722342 | 1.67° C | 98% | 1017.4 hPa | 0 mm | - | - | - |
| 1777722042 | 1.67° C | 98% | 1017.3 hPa | 0 mm | - | - | - |
| 1777721746 | 1.67° C | 98% | 1017.4 hPa | 0 mm | - | - | - |
| 1777721442 | 1.67° C | 98% | 1017.3 hPa | 0 mm | - | - | - |
| 1777721146 | 1.67° C | 98% | 1017.2 hPa | 0 mm | - | - | - |
| 1777720842 | 1.11° C | 98% | 1017.3 hPa | 0 mm | - | - | - |
| 1777720541 | 1.11° C | 98% | 1017.2 hPa | 0 mm | - | - | - |
| 1777720246 | 1.11° C | 98% | 1017.2 hPa | 0 mm | - | - | - |
| 1777719941 | 1.11° C | 98% | 1017.2 hPa | 0 mm | - | - | - |
| 1777719642 | 1.11° C | 98% | 1017.1 hPa | 0 mm | - | - | - |
| 1777719342 | 1.11° C | 98% | 1017.1 hPa | 0 mm | - | - | - |
| 1777719042 | 1.67° C | 98% | 1017.1 hPa | 0 mm | - | - | - |
| 1777718742 | 1.67° C | 98% | 1017.1 hPa | 0 mm | - | - | - |
| 1777718440 | 1.67° C | 98% | 1017.2 hPa | 0 mm | - | - | - |
| 1777718143 | 1.67° C | 98% | 1017.1 hPa | 0 mm | - | - | - |
| 1777717840 | 1.67° C | 98% | 1017.1 hPa | 0 mm | - | - | - |
| 1777717541 | 1.67° C | 98% | 1017.1 hPa | 0 mm | - | - | - |
| 1777717242 | 2.22° C | 98% | 1017.1 hPa | 0 mm | - | - | - |
| 1777716942 | 2.22° C | 98% | 1017 hPa | 0 mm | - | - | - |
| 1777716643 | 2.22° C | 98% | 1017.1 hPa | 0 mm | - | - | - |
| 1777716339 | 2.22° C | 98% | 1017.1 hPa | 0 mm | - | - | - |
| 1777716045 | 2.22° C | 98% | 1017 hPa | 0 mm | - | - | - |
| 1777715739 | -4.44° C | 98% | 1017 hPa | 0 mm | - | - | - |
| 1777686032 | 5.56° C | 93% | 1016.7 hPa | 0 mm | - | - | - |
| 1777685734 | 5.56° C | 93% | 1016.7 hPa | 0 mm | - | - | - |
* Rain latest hour (hover to see other rain measurements)
** Current wind speed in m/s (hover to see current wind gust speed)